sensor_id;sensor_type;location;lat;lon;timestamp;temperature;humidity
12959;DHT22;6544;51.666;6.634;2022-07-23T00:01:20;18.40;99.90
12959;DHT22;6544;51.666;6.634;2022-07-23T00:03:47;18.50;99.90
12959;DHT22;6544;51.666;6.634;2022-07-23T00:06:14;18.40;99.90
12959;DHT22;6544;51.666;6.634;2022-07-23T00:08:43;18.30;99.90
12959;DHT22;6544;51.666;6.634;2022-07-23T00:11:10;18.20;99.90
12959;DHT22;6544;51.666;6.634;2022-07-23T00:13:37;18.30;99.90
12959;DHT22;6544;51.666;6.634;2022-07-23T00:16:04;18.20;99.90
12959;DHT22;6544;51.666;6.634;2022-07-23T00:18:31;18.20;99.90
12959;DHT22;6544;51.666;6.634;2022-07-23T00:20:59;18.10;99.90
12959;DHT22;6544;51.666;6.634;2022-07-23T00:23:25;18.00;99.90
12959;DHT22;6544;51.666;6.634;2022-07-23T00:25:54;17.80;99.90
12959;DHT22;6544;51.666;6.634;2022-07-23T00:28:21;18.00;99.90
12959;DHT22;6544;51.666;6.634;2022-07-23T00:30:48;18.00;99.90
12959;DHT22;6544;51.666;6.634;2022-07-23T00:33:15;18.10;99.90
12959;DHT22;6544;51.666;6.634;2022-07-23T00:35:42;18.10;99.90
12959;DHT22;6544;51.666;6.634;2022-07-23T00:38:10;17.80;99.90
12959;DHT22;6544;51.666;6.634;2022-07-23T00:40:39;17.90;99.90
12959;DHT22;6544;51.666;6.634;2022-07-23T00:43:07;17.70;99.90
12959;DHT22;6544;51.666;6.634;2022-07-23T00:45:34;17.90;99.90
12959;DHT22;6544;51.666;6.634;2022-07-23T00:48:02;18.10;99.90
12959;DHT22;6544;51.666;6.634;2022-07-23T00:50:29;18.10;99.90
12959;DHT22;6544;51.666;6.634;2022-07-23T00:52:56;18.10;99.90
12959;DHT22;6544;51.666;6.634;2022-07-23T00:55:23;18.20;99.90
12959;DHT22;6544;51.666;6.634;2022-07-23T00:57:50;18.20;99.90
12959;DHT22;6544;51.666;6.634;2022-07-23T01:00:20;18.20;99.90
12959;DHT22;6544;51.666;6.634;2022-07-23T01:02:47;18.40;99.90
12959;DHT22;6544;51.666;6.634;2022-07-23T01:05:15;18.30;99.90
12959;DHT22;6544;51.666;6.634;2022-07-23T01:07:43;18.00;99.90
12959;DHT22;6544;51.666;6.634;2022-07-23T01:10:11;18.00;99.90
12959;DHT22;6544;51.666;6.634;2022-07-23T01:12:52;18.10;99.90
12959;DHT22;6544;51.666;6.634;2022-07-23T01:15:20;18.10;99.90
12959;DHT22;6544;51.666;6.634;2022-07-23T01:17:48;18.30;99.90
12959;DHT22;6544;51.666;6.634;2022-07-23T01:20:14;18.30;99.90
12959;DHT22;6544;51.666;6.634;2022-07-23T01:22:43;18.30;99.90
12959;DHT22;6544;51.666;6.634;2022-07-23T01:25:10;18.10;99.90
12959;DHT22;6544;51.666;6.634;2022-07-23T01:27:37;17.90;99.90
12959;DHT22;6544;51.666;6.634;2022-07-23T01:30:05;17.70;99.90
12959;DHT22;6544;51.666;6.634;2022-07-23T01:32:32;17.40;99.90
12959;DHT22;6544;51.666;6.634;2022-07-23T01:34:59;17.30;99.90
12959;DHT22;6544;51.666;6.634;2022-07-23T01:37:28;17.60;99.90
12959;DHT22;6544;51.666;6.634;2022-07-23T01:39:56;17.80;99.90
12959;DHT22;6544;51.666;6.634;2022-07-23T01:42:24;17.90;99.90
12959;DHT22;6544;51.666;6.634;2022-07-23T01:44:51;18.10;99.90
12959;DHT22;6544;51.666;6.634;2022-07-23T01:47:18;18.10;99.90
12959;DHT22;6544;51.666;6.634;2022-07-23T01:49:44;17.80;99.90
12959;DHT22;6544;51.666;6.634;2022-07-23T01:52:11;17.50;99.90
12959;DHT22;6544;51.666;6.634;2022-07-23T01:54:39;17.40;99.90
12959;DHT22;6544;51.666;6.634;2022-07-23T01:57:08;17.10;99.90
12959;DHT22;6544;51.666;6.634;2022-07-23T01:59:35;16.80;99.90
12959;DHT22;6544;51.666;6.634;2022-07-23T02:02:02;16.60;99.90
12959;DHT22;6544;51.666;6.634;2022-07-23T02:04:31;16.80;99.90
12959;DHT22;6544;51.666;6.634;2022-07-23T02:07:00;17.00;99.90
12959;DHT22;6544;51.666;6.634;2022-07-23T02:09:27;17.30;99.90
12959;DHT22;6544;51.666;6.634;2022-07-23T02:11:54;17.30;99.90
12959;DHT22;6544;51.666;6.634;2022-07-23T02:14:23;17.20;99.90
12959;DHT22;6544;51.666;6.634;2022-07-23T02:16:50;17.30;99.90
12959;DHT22;6544;51.666;6.634;2022-07-23T02:19:17;17.30;99.90
12959;DHT22;6544;51.666;6.634;2022-07-23T02:21:44;17.40;99.90
12959;DHT22;6544;51.666;6.634;2022-07-23T02:24:11;17.60;99.90
12959;DHT22;6544;51.666;6.634;2022-07-23T02:26:37;17.70;99.90
12959;DHT22;6544;51.666;6.634;2022-07-23T02:29:05;17.70;99.90
12959;DHT22;6544;51.666;6.634;2022-07-23T02:31:33;17.80;99.90
12959;DHT22;6544;51.666;6.634;2022-07-23T02:34:01;17.90;99.90
12959;DHT22;6544;51.666;6.634;2022-07-23T02:36:28;17.90;99.90
12959;DHT22;6544;51.666;6.634;2022-07-23T02:38:55;17.90;99.90
12959;DHT22;6544;51.666;6.634;2022-07-23T02:41:22;17.90;99.90
12959;DHT22;6544;51.666;6.634;2022-07-23T02:43:49;17.90;99.90
12959;DHT22;6544;51.666;6.634;2022-07-23T02:46:16;17.90;99.90
12959;DHT22;6544;51.666;6.634;2022-07-23T02:48:44;17.90;99.90
12959;DHT22;6544;51.666;6.634;2022-07-23T02:51:11;17.90;99.90
12959;DHT22;6544;51.666;6.634;2022-07-23T02:53:38;17.80;99.90
12959;DHT22;6544;51.666;6.634;2022-07-23T02:56:05;17.30;99.90
12959;DHT22;6544;51.666;6.634;2022-07-23T02:58:32;17.00;99.90
12959;DHT22;6544;51.666;6.634;2022-07-23T03:00:59;17.10;99.90
12959;DHT22;6544;51.666;6.634;2022-07-23T03:03:26;17.10;99.90
12959;DHT22;6544;51.666;6.634;2022-07-23T03:05:54;17.20;99.90
12959;DHT22;6544;51.666;6.634;2022-07-23T03:08:21;17.20;99.90
12959;DHT22;6544;51.666;6.634;2022-07-23T03:10:50;17.00;99.90
12959;DHT22;6544;51.666;6.634;2022-07-23T03:13:17;16.70;99.90
12959;DHT22;6544;51.666;6.634;2022-07-23T03:15:44;16.80;99.90
12959;DHT22;6544;51.666;6.634;2022-07-23T03:18:11;17.00;99.90
12959;DHT22;6544;51.666;6.634;2022-07-23T03:20:38;17.00;99.90
12959;DHT22;6544;51.666;6.634;2022-07-23T03:23:06;16.80;99.90
12959;DHT22;6544;51.666;6.634;2022-07-23T03:25:33;16.70;99.90
12959;DHT22;6544;51.666;6.634;2022-07-23T03:28:00;16.50;99.90
12959;DHT22;6544;51.666;6.634;2022-07-23T03:30:27;16.30;99.90
12959;DHT22;6544;51.666;6.634;2022-07-23T03:32:54;16.40;99.90
12959;DHT22;6544;51.666;6.634;2022-07-23T03:35:21;16.60;99.90
12959;DHT22;6544;51.666;6.634;2022-07-23T03:37:48;16.20;99.90
12959;DHT22;6544;51.666;6.634;2022-07-23T03:40:16;15.90;99.90
12959;DHT22;6544;51.666;6.634;2022-07-23T03:42:43;15.90;99.90
12959;DHT22;6544;51.666;6.634;2022-07-23T03:45:11;16.20;99.90
12959;DHT22;6544;51.666;6.634;2022-07-23T03:47:39;16.30;99.90
12959;DHT22;6544;51.666;6.634;2022-07-23T03:50:06;16.20;99.90
12959;DHT22;6544;51.666;6.634;2022-07-23T03:52:33;16.00;99.90
12959;DHT22;6544;51.666;6.634;2022-07-23T03:55:01;16.10;99.90
12959;DHT22;6544;51.666;6.634;2022-07-23T03:57:29;16.20;99.90
12959;DHT22;6544;51.666;6.634;2022-07-23T03:59:56;16.10;99.90
12959;DHT22;6544;51.666;6.634;2022-07-23T04:02:24;16.10;99.90
12959;DHT22;6544;51.666;6.634;2022-07-23T04:04:51;15.80;99.90
12959;DHT22;6544;51.666;6.634;2022-07-23T04:07:18;16.10;99.90
12959;DHT22;6544;51.666;6.634;2022-07-23T04:09:45;16.00;99.90
12959;DHT22;6544;51.666;6.634;2022-07-23T04:12:12;15.80;99.90
12959;DHT22;6544;51.666;6.634;2022-07-23T04:14:40;15.80;99.90
12959;DHT22;6544;51.666;6.634;2022-07-23T04:17:08;15.90;99.90
12959;DHT22;6544;51.666;6.634;2022-07-23T04:19:35;16.20;99.90
12959;DHT22;6544;51.666;6.634;2022-07-23T04:22:05;16.30;99.90
12959;DHT22;6544;51.666;6.634;2022-07-23T04:24:32;16.40;99.90
12959;DHT22;6544;51.666;6.634;2022-07-23T04:26:59;16.50;99.90
12959;DHT22;6544;51.666;6.634;2022-07-23T04:29:26;16.60;99.90
12959;DHT22;6544;51.666;6.634;2022-07-23T04:31:54;16.60;99.90
12959;DHT22;6544;51.666;6.634;2022-07-23T04:34:21;16.60;99.90
12959;DHT22;6544;51.666;6.634;2022-07-23T04:36:48;16.70;99.90
12959;DHT22;6544;51.666;6.634;2022-07-23T04:39:15;16.50;99.90
12959;DHT22;6544;51.666;6.634;2022-07-23T04:41:42;16.40;99.90
12959;DHT22;6544;51.666;6.634;2022-07-23T04:44:09;16.20;99.90
12959;DHT22;6544;51.666;6.634;2022-07-23T04:46:36;16.10;99.90
12959;DHT22;6544;51.666;6.634;2022-07-23T04:49:04;16.20;99.90
12959;DHT22;6544;51.666;6.634;2022-07-23T04:51:31;16.30;99.90
12959;DHT22;6544;51.666;6.634;2022-07-23T04:53:58;16.00;99.90
12959;DHT22;6544;51.666;6.634;2022-07-23T04:56:25;16.00;99.90
12959;DHT22;6544;51.666;6.634;2022-07-23T04:58:52;16.10;99.90
12959;DHT22;6544;51.666;6.634;2022-07-23T05:01:19;16.00;99.90
12959;DHT22;6544;51.666;6.634;2022-07-23T05:03:46;15.90;99.90
12959;DHT22;6544;51.666;6.634;2022-07-23T05:06:15;16.20;99.90
12959;DHT22;6544;51.666;6.634;2022-07-23T05:08:42;16.20;99.90
12959;DHT22;6544;51.666;6.634;2022-07-23T05:11:09;16.20;99.90
12959;DHT22;6544;51.666;6.634;2022-07-23T05:13:35;16.00;99.90
12959;DHT22;6544;51.666;6.634;2022-07-23T05:16:03;16.00;99.90
12959;DHT22;6544;51.666;6.634;2022-07-23T05:18:30;16.20;99.90
12959;DHT22;6544;51.666;6.634;2022-07-23T05:20:57;16.30;99.90
12959;DHT22;6544;51.666;6.634;2022-07-23T05:23:25;16.20;99.90
12959;DHT22;6544;51.666;6.634;2022-07-23T05:25:52;16.20;99.90
12959;DHT22;6544;51.666;6.634;2022-07-23T05:28:19;16.20;99.90
12959;DHT22;6544;51.666;6.634;2022-07-23T05:30:46;16.10;99.90
12959;DHT22;6544;51.666;6.634;2022-07-23T05:33:12;16.00;99.90
12959;DHT22;6544;51.666;6.634;2022-07-23T05:35:39;15.90;99.90
12959;DHT22;6544;51.666;6.634;2022-07-23T05:38:06;16.00;99.90
12959;DHT22;6544;51.666;6.634;2022-07-23T05:40:35;16.00;99.90
12959;DHT22;6544;51.666;6.634;2022-07-23T05:43:02;16.10;99.90
12959;DHT22;6544;51.666;6.634;2022-07-23T05:45:28;16.10;99.90
12959;DHT22;6544;51.666;6.634;2022-07-23T05:47:55;16.10;99.90
12959;DHT22;6544;51.666;6.634;2022-07-23T05:50:22;15.90;99.90
12959;DHT22;6544;51.666;6.634;2022-07-23T05:52:49;15.90;99.90
12959;DHT22;6544;51.666;6.634;2022-07-23T05:55:16;15.80;99.90
12959;DHT22;6544;51.666;6.634;2022-07-23T05:57:44;16.00;99.90
12959;DHT22;6544;51.666;6.634;2022-07-23T06:00:12;16.10;99.90
12959;DHT22;6544;51.666;6.634;2022-07-23T06:02:39;16.00;99.90
12959;DHT22;6544;51.666;6.634;2022-07-23T06:05:07;16.10;99.90
12959;DHT22;6544;51.666;6.634;2022-07-23T06:07:34;16.10;99.90
12959;DHT22;6544;51.666;6.634;2022-07-23T06:10:01;16.10;99.90
12959;DHT22;6544;51.666;6.634;2022-07-23T06:12:28;16.20;99.90
12959;DHT22;6544;51.666;6.634;2022-07-23T06:14:56;16.30;99.90
12959;DHT22;6544;51.666;6.634;2022-07-23T06:17:24;16.30;99.90
12959;DHT22;6544;51.666;6.634;2022-07-23T06:19:50;16.30;99.90
12959;DHT22;6544;51.666;6.634;2022-07-23T06:22:17;16.40;99.90
12959;DHT22;6544;51.666;6.634;2022-07-23T06:24:44;16.30;99.90
12959;DHT22;6544;51.666;6.634;2022-07-23T06:27:11;16.30;99.90
12959;DHT22;6544;51.666;6.634;2022-07-23T06:29:38;16.40;99.90
12959;DHT22;6544;51.666;6.634;2022-07-23T06:32:07;16.60;99.90
12959;DHT22;6544;51.666;6.634;2022-07-23T06:34:34;16.60;99.90
12959;DHT22;6544;51.666;6.634;2022-07-23T06:37:01;16.80;99.90
12959;DHT22;6544;51.666;6.634;2022-07-23T06:39:28;16.90;99.90
12959;DHT22;6544;51.666;6.634;2022-07-23T06:41:55;16.90;99.90
12959;DHT22;6544;51.666;6.634;2022-07-23T06:44:22;17.00;99.90
12959;DHT22;6544;51.666;6.634;2022-07-23T06:46:49;17.10;99.90
12959;DHT22;6544;51.666;6.634;2022-07-23T06:49:17;17.20;99.90
12959;DHT22;6544;51.666;6.634;2022-07-23T06:51:44;17.50;99.90
12959;DHT22;6544;51.666;6.634;2022-07-23T06:54:11;17.70;99.90
12959;DHT22;6544;51.666;6.634;2022-07-23T06:56:38;17.80;99.90
12959;DHT22;6544;51.666;6.634;2022-07-23T06:59:05;17.80;99.90
12959;DHT22;6544;51.666;6.634;2022-07-23T07:01:32;17.80;99.90
12959;DHT22;6544;51.666;6.634;2022-07-23T07:03:59;17.70;99.90
12959;DHT22;6544;51.666;6.634;2022-07-23T07:06:28;17.80;99.90
12959;DHT22;6544;51.666;6.634;2022-07-23T07:08:55;17.70;99.90
12959;DHT22;6544;51.666;6.634;2022-07-23T07:11:22;17.80;99.90
12959;DHT22;6544;51.666;6.634;2022-07-23T07:13:50;17.80;99.90
12959;DHT22;6544;51.666;6.634;2022-07-23T07:16:18;17.90;99.90
12959;DHT22;6544;51.666;6.634;2022-07-23T07:18:44;17.90;99.90
12959;DHT22;6544;51.666;6.634;2022-07-23T07:21:11;18.00;99.90
12959;DHT22;6544;51.666;6.634;2022-07-23T07:23:40;18.00;99.90
12959;DHT22;6544;51.666;6.634;2022-07-23T07:26:07;18.20;99.90
12959;DHT22;6544;51.666;6.634;2022-07-23T07:28:34;18.30;99.90
12959;DHT22;6544;51.666;6.634;2022-07-23T07:31:01;18.40;99.90
12959;DHT22;6544;51.666;6.634;2022-07-23T07:33:28;18.50;99.90
12959;DHT22;6544;51.666;6.634;2022-07-23T07:35:55;18.60;99.90
12959;DHT22;6544;51.666;6.634;2022-07-23T07:38:22;18.70;99.90
12959;DHT22;6544;51.666;6.634;2022-07-23T07:40:51;18.80;99.90
12959;DHT22;6544;51.666;6.634;2022-07-23T07:43:17;18.90;99.90
12959;DHT22;6544;51.666;6.634;2022-07-23T07:45:44;18.90;99.90
12959;DHT22;6544;51.666;6.634;2022-07-23T07:48:11;18.90;99.90
12959;DHT22;6544;51.666;6.634;2022-07-23T07:50:38;18.80;99.90
12959;DHT22;6544;51.666;6.634;2022-07-23T07:53:05;18.80;99.90
12959;DHT22;6544;51.666;6.634;2022-07-23T07:55:32;18.80;99.90
12959;DHT22;6544;51.666;6.634;2022-07-23T07:58:01;18.80;99.90
12959;DHT22;6544;51.666;6.634;2022-07-23T08:00:28;18.70;99.90
12959;DHT22;6544;51.666;6.634;2022-07-23T08:02:55;18.80;99.90
12959;DHT22;6544;51.666;6.634;2022-07-23T08:05:23;18.90;99.90
12959;DHT22;6544;51.666;6.634;2022-07-23T08:07:51;19.00;99.90
12959;DHT22;6544;51.666;6.634;2022-07-23T08:10:19;18.90;99.90
12959;DHT22;6544;51.666;6.634;2022-07-23T08:12:47;18.80;99.90
12959;DHT22;6544;51.666;6.634;2022-07-23T08:15:18;19.00;99.90
12959;DHT22;6544;51.666;6.634;2022-07-23T08:17:47;19.20;99.90
12959;DHT22;6544;51.666;6.634;2022-07-23T08:20:17;19.20;99.90
12959;DHT22;6544;51.666;6.634;2022-07-23T08:22:47;19.10;99.90
12959;DHT22;6544;51.666;6.634;2022-07-23T08:25:15;19.20;99.90
12959;DHT22;6544;51.666;6.634;2022-07-23T08:27:42;19.30;99.90
12959;DHT22;6544;51.666;6.634;2022-07-23T08:30:09;19.50;99.90
12959;DHT22;6544;51.666;6.634;2022-07-23T08:32:52;19.60;99.90
12959;DHT22;6544;51.666;6.634;2022-07-23T08:35:23;19.20;99.90
12959;DHT22;6544;51.666;6.634;2022-07-23T08:37:50;19.30;99.90
12959;DHT22;6544;51.666;6.634;2022-07-23T08:40:18;19.40;99.90
12959;DHT22;6544;51.666;6.634;2022-07-23T08:42:47;19.30;99.90
12959;DHT22;6544;51.666;6.634;2022-07-23T08:45:20;19.50;99.90
12959;DHT22;6544;51.666;6.634;2022-07-23T08:47:53;19.70;99.90
12959;DHT22;6544;51.666;6.634;2022-07-23T08:50:20;19.70;99.90
12959;DHT22;6544;51.666;6.634;2022-07-23T08:52:48;19.70;99.90
12959;DHT22;6544;51.666;6.634;2022-07-23T08:55:17;19.70;99.90
12959;DHT22;6544;51.666;6.634;2022-07-23T08:57:44;19.90;99.90
12959;DHT22;6544;51.666;6.634;2022-07-23T09:00:12;19.80;99.90
12959;DHT22;6544;51.666;6.634;2022-07-23T09:02:40;20.10;99.90
12959;DHT22;6544;51.666;6.634;2022-07-23T09:05:09;20.10;99.90
12959;DHT22;6544;51.666;6.634;2022-07-23T09:07:38;20.00;99.90
12959;DHT22;6544;51.666;6.634;2022-07-23T09:10:08;20.20;99.90
12959;DHT22;6544;51.666;6.634;2022-07-23T09:12:35;20.40;99.90
12959;DHT22;6544;51.666;6.634;2022-07-23T09:15:08;20.50;99.90
12959;DHT22;6544;51.666;6.634;2022-07-23T09:17:40;20.50;99.90
12959;DHT22;6544;51.666;6.634;2022-07-23T09:20:11;20.60;99.90
12959;DHT22;6544;51.666;6.634;2022-07-23T09:22:39;20.80;99.90
12959;DHT22;6544;51.666;6.634;2022-07-23T09:25:09;20.40;99.90
12959;DHT22;6544;51.666;6.634;2022-07-23T09:27:48;20.70;99.90
12959;DHT22;6544;51.666;6.634;2022-07-23T09:30:15;20.90;99.90
12959;DHT22;6544;51.666;6.634;2022-07-23T09:32:42;20.90;99.90
12959;DHT22;6544;51.666;6.634;2022-07-23T09:35:11;20.90;99.90
12959;DHT22;6544;51.666;6.634;2022-07-23T09:37:38;20.80;99.90
12959;DHT22;6544;51.666;6.634;2022-07-23T09:40:07;20.80;99.90
12959;DHT22;6544;51.666;6.634;2022-07-23T09:42:35;20.60;99.90
12959;DHT22;6544;51.666;6.634;2022-07-23T09:45:02;20.90;99.90
12959;DHT22;6544;51.666;6.634;2022-07-23T09:47:31;21.20;99.90
12959;DHT22;6544;51.666;6.634;2022-07-23T09:50:00;21.40;99.90
12959;DHT22;6544;51.666;6.634;2022-07-23T09:52:32;21.40;99.90
12959;DHT22;6544;51.666;6.634;2022-07-23T09:55:00;21.20;99.90
12959;DHT22;6544;51.666;6.634;2022-07-23T09:57:28;21.30;99.90
12959;DHT22;6544;51.666;6.634;2022-07-23T09:59:58;21.30;99.90
12959;DHT22;6544;51.666;6.634;2022-07-23T10:02:28;21.30;99.90
12959;DHT22;6544;51.666;6.634;2022-07-23T10:04:55;21.10;99.90
12959;DHT22;6544;51.666;6.634;2022-07-23T10:07:22;21.10;99.90
12959;DHT22;6544;51.666;6.634;2022-07-23T10:09:54;21.40;99.90
12959;DHT22;6544;51.666;6.634;2022-07-23T10:12:21;21.50;98.50
12959;DHT22;6544;51.666;6.634;2022-07-23T10:14:58;21.40;98.10
12959;DHT22;6544;51.666;6.634;2022-07-23T10:17:28;21.30;99.50
12959;DHT22;6544;51.666;6.634;2022-07-23T10:19:55;21.20;99.90
12959;DHT22;6544;51.666;6.634;2022-07-23T10:22:24;21.20;99.90
12959;DHT22;6544;51.666;6.634;2022-07-23T10:25:10;21.50;99.90
12959;DHT22;6544;51.666;6.634;2022-07-23T10:27:58;21.60;99.90
12959;DHT22;6544;51.666;6.634;2022-07-23T10:30:36;21.90;98.50
12959;DHT22;6544;51.666;6.634;2022-07-23T10:33:27;22.10;99.90
12959;DHT22;6544;51.666;6.634;2022-07-23T10:36:02;22.20;99.00
12959;DHT22;6544;51.666;6.634;2022-07-23T10:38:34;22.00;99.70
12959;DHT22;6544;51.666;6.634;2022-07-23T10:41:05;21.80;99.90
12959;DHT22;6544;51.666;6.634;2022-07-23T10:43:32;22.10;99.90
12959;DHT22;6544;51.666;6.634;2022-07-23T10:46:21;22.30;99.90
12959;DHT22;6544;51.666;6.634;2022-07-23T10:49:23;22.50;99.90
12959;DHT22;6544;51.666;6.634;2022-07-23T10:52:16;22.70;97.00
12959;DHT22;6544;51.666;6.634;2022-07-23T10:54:45;22.80;93.90
12959;DHT22;6544;51.666;6.634;2022-07-23T10:57:15;22.50;93.00
12959;DHT22;6544;51.666;6.634;2022-07-23T11:02:56;22.50;99.90
12959;DHT22;6544;51.666;6.634;2022-07-23T11:05:25;22.90;92.00
12959;DHT22;6544;51.666;6.634;2022-07-23T11:08:14;22.90;93.50
12959;DHT22;6544;51.666;6.634;2022-07-23T11:10:44;23.20;92.40
12959;DHT22;6544;51.666;6.634;2022-07-23T11:13:28;23.40;96.70
12959;DHT22;6544;51.666;6.634;2022-07-23T11:16:12;23.30;91.40
12959;DHT22;6544;51.666;6.634;2022-07-23T11:18:58;23.30;89.10
12959;DHT22;6544;51.666;6.634;2022-07-23T11:21:48;23.50;91.70
12959;DHT22;6544;51.666;6.634;2022-07-23T11:24:20;23.80;96.30
12959;DHT22;6544;51.666;6.634;2022-07-23T11:27:02;24.10;94.90
12959;DHT22;6544;51.666;6.634;2022-07-23T11:29:44;24.10;82.80
12959;DHT22;6544;51.666;6.634;2022-07-23T11:32:30;24.20;75.50
12959;DHT22;6544;51.666;6.634;2022-07-23T11:34:59;24.20;78.30
12959;DHT22;6544;51.666;6.634;2022-07-23T11:37:29;24.50;81.60
12959;DHT22;6544;51.666;6.634;2022-07-23T11:39:58;24.10;78.00
12959;DHT22;6544;51.666;6.634;2022-07-23T11:42:25;24.10;77.40
12959;DHT22;6544;51.666;6.634;2022-07-23T11:44:53;24.30;92.60
12959;DHT22;6544;51.666;6.634;2022-07-23T11:47:25;24.60;73.10
12959;DHT22;6544;51.666;6.634;2022-07-23T11:49:54;24.60;72.20
12959;DHT22;6544;51.666;6.634;2022-07-23T11:52:22;24.60;78.40
12959;DHT22;6544;51.666;6.634;2022-07-23T11:54:51;24.70;67.80
12959;DHT22;6544;51.666;6.634;2022-07-23T11:57:19;24.40;69.30
12959;DHT22;6544;51.666;6.634;2022-07-23T11:59:47;24.00;83.10
12959;DHT22;6544;51.666;6.634;2022-07-23T12:02:17;24.60;74.70
12959;DHT22;6544;51.666;6.634;2022-07-23T12:04:47;25.00;67.20
12959;DHT22;6544;51.666;6.634;2022-07-23T12:07:25;25.30;68.40
12959;DHT22;6544;51.666;6.634;2022-07-23T12:09:53;24.90;63.40
12959;DHT22;6544;51.666;6.634;2022-07-23T12:12:21;24.90;65.70
12959;DHT22;6544;51.666;6.634;2022-07-23T12:14:50;24.60;72.40
12959;DHT22;6544;51.666;6.634;2022-07-23T12:17:19;25.20;67.60
12959;DHT22;6544;51.666;6.634;2022-07-23T12:19:47;25.60;68.50
12959;DHT22;6544;51.666;6.634;2022-07-23T12:22:14;25.60;64.00
12959;DHT22;6544;51.666;6.634;2022-07-23T12:24:57;25.40;62.70
12959;DHT22;6544;51.666;6.634;2022-07-23T12:27:25;25.50;65.60
12959;DHT22;6544;51.666;6.634;2022-07-23T12:29:52;24.60;68.80
12959;DHT22;6544;51.666;6.634;2022-07-23T12:32:22;24.90;70.60
12959;DHT22;6544;51.666;6.634;2022-07-23T12:34:53;25.20;65.50
12959;DHT22;6544;51.666;6.634;2022-07-23T12:37:30;24.90;69.20
12959;DHT22;6544;51.666;6.634;2022-07-23T12:39:57;25.10;69.90
12959;DHT22;6544;51.666;6.634;2022-07-23T12:42:24;25.50;67.00
12959;DHT22;6544;51.666;6.634;2022-07-23T12:45:09;25.40;63.40
12959;DHT22;6544;51.666;6.634;2022-07-23T12:47:55;25.60;58.30
12959;DHT22;6544;51.666;6.634;2022-07-23T12:50:55;25.80;55.60
12959;DHT22;6544;51.666;6.634;2022-07-23T12:53:24;25.70;58.50
12959;DHT22;6544;51.666;6.634;2022-07-23T12:55:58;25.80;54.40
12959;DHT22;6544;51.666;6.634;2022-07-23T12:58:25;25.80;53.80
12959;DHT22;6544;51.666;6.634;2022-07-23T13:00:57;25.40;53.60
12959;DHT22;6544;51.666;6.634;2022-07-23T13:03:28;26.00;66.00
12959;DHT22;6544;51.666;6.634;2022-07-23T13:05:56;26.00;46.80
12959;DHT22;6544;51.666;6.634;2022-07-23T13:08:24;26.20;46.80
12959;DHT22;6544;51.666;6.634;2022-07-23T13:10:51;25.40;49.00
12959;DHT22;6544;51.666;6.634;2022-07-23T13:13:21;25.50;48.80
12959;DHT22;6544;51.666;6.634;2022-07-23T13:15:48;25.70;53.90
12959;DHT22;6544;51.666;6.634;2022-07-23T13:18:15;25.50;46.30
12959;DHT22;6544;51.666;6.634;2022-07-23T13:20:45;25.60;56.80
12959;DHT22;6544;51.666;6.634;2022-07-23T13:23:12;25.90;45.80
12959;DHT22;6544;51.666;6.634;2022-07-23T13:25:39;26.70;44.50
12959;DHT22;6544;51.666;6.634;2022-07-23T13:28:06;26.60;42.90
12959;DHT22;6544;51.666;6.634;2022-07-23T13:30:33;27.20;36.20
12959;DHT22;6544;51.666;6.634;2022-07-23T13:33:01;25.90;41.50
12959;DHT22;6544;51.666;6.634;2022-07-23T13:35:29;26.50;41.60
12959;DHT22;6544;51.666;6.634;2022-07-23T13:37:57;25.90;54.10
12959;DHT22;6544;51.666;6.634;2022-07-23T13:40:24;25.90;46.90
12959;DHT22;6544;51.666;6.634;2022-07-23T13:42:51;25.60;49.50
12959;DHT22;6544;51.666;6.634;2022-07-23T13:45:18;26.50;49.20
12959;DHT22;6544;51.666;6.634;2022-07-23T13:47:45;26.20;48.50
12959;DHT22;6544;51.666;6.634;2022-07-23T13:50:12;25.80;56.90
12959;DHT22;6544;51.666;6.634;2022-07-23T13:52:41;26.10;56.90
12959;DHT22;6544;51.666;6.634;2022-07-23T13:55:10;26.50;42.70
12959;DHT22;6544;51.666;6.634;2022-07-23T13:57:38;26.60;44.20
12959;DHT22;6544;51.666;6.634;2022-07-23T14:00:06;26.60;47.00
12959;DHT22;6544;51.666;6.634;2022-07-23T14:02:35;25.90;51.90
12959;DHT22;6544;51.666;6.634;2022-07-23T14:05:04;26.00;50.00
12959;DHT22;6544;51.666;6.634;2022-07-23T14:07:31;26.60;51.10
12959;DHT22;6544;51.666;6.634;2022-07-23T14:09:58;26.50;54.30
12959;DHT22;6544;51.666;6.634;2022-07-23T14:12:26;26.70;47.10
12959;DHT22;6544;51.666;6.634;2022-07-23T14:14:53;25.90;48.50
12959;DHT22;6544;51.666;6.634;2022-07-23T14:17:20;25.50;54.50
12959;DHT22;6544;51.666;6.634;2022-07-23T14:19:47;25.80;68.00
12959;DHT22;6544;51.666;6.634;2022-07-23T14:22:14;26.20;61.90
12959;DHT22;6544;51.666;6.634;2022-07-23T14:24:41;26.70;49.90
12959;DHT22;6544;51.666;6.634;2022-07-23T14:27:09;26.70;45.40
12959;DHT22;6544;51.666;6.634;2022-07-23T14:29:37;26.80;49.70
12959;DHT22;6544;51.666;6.634;2022-07-23T14:32:04;26.40;43.20
12959;DHT22;6544;51.666;6.634;2022-07-23T14:34:32;25.60;50.40
12959;DHT22;6544;51.666;6.634;2022-07-23T14:36:59;25.30;55.70
12959;DHT22;6544;51.666;6.634;2022-07-23T14:39:26;25.40;58.00
12959;DHT22;6544;51.666;6.634;2022-07-23T14:41:53;25.50;55.90
12959;DHT22;6544;51.666;6.634;2022-07-23T14:44:20;25.60;58.20
12959;DHT22;6544;51.666;6.634;2022-07-23T14:46:49;25.90;59.90
12959;DHT22;6544;51.666;6.634;2022-07-23T14:49:16;26.30;52.50
12959;DHT22;6544;51.666;6.634;2022-07-23T14:51:43;26.10;55.00
12959;DHT22;6544;51.666;6.634;2022-07-23T14:54:10;26.10;59.10
12959;DHT22;6544;51.666;6.634;2022-07-23T14:56:37;26.10;53.40
12959;DHT22;6544;51.666;6.634;2022-07-23T14:59:04;26.10;52.50
12959;DHT22;6544;51.666;6.634;2022-07-23T15:01:31;26.20;56.60
12959;DHT22;6544;51.666;6.634;2022-07-23T15:04:00;25.90;54.70
12959;DHT22;6544;51.666;6.634;2022-07-23T15:06:26;25.40;59.90
12959;DHT22;6544;51.666;6.634;2022-07-23T15:08:53;25.30;61.90
12959;DHT22;6544;51.666;6.634;2022-07-23T15:11:20;25.10;64.70
12959;DHT22;6544;51.666;6.634;2022-07-23T15:13:47;25.10;64.10
12959;DHT22;6544;51.666;6.634;2022-07-23T15:16:14;25.10;66.10
12959;DHT22;6544;51.666;6.634;2022-07-23T15:18:41;25.00;68.40
12959;DHT22;6544;51.666;6.634;2022-07-23T15:21:10;25.10;69.50
12959;DHT22;6544;51.666;6.634;2022-07-23T15:23:37;25.20;61.10
12959;DHT22;6544;51.666;6.634;2022-07-23T15:26:06;24.80;68.70
12959;DHT22;6544;51.666;6.634;2022-07-23T15:28:33;25.00;66.00
12959;DHT22;6544;51.666;6.634;2022-07-23T15:31:01;24.80;69.20
12959;DHT22;6544;51.666;6.634;2022-07-23T15:33:27;25.00;70.00
12959;DHT22;6544;51.666;6.634;2022-07-23T15:35:55;25.10;74.90
12959;DHT22;6544;51.666;6.634;2022-07-23T15:38:26;25.00;65.40
12959;DHT22;6544;51.666;6.634;2022-07-23T15:40:55;24.70;71.10
12959;DHT22;6544;51.666;6.634;2022-07-23T15:43:22;25.00;68.00
12959;DHT22;6544;51.666;6.634;2022-07-23T15:45:51;25.00;62.80
12959;DHT22;6544;51.666;6.634;2022-07-23T15:48:19;25.00;64.20
12959;DHT22;6544;51.666;6.634;2022-07-23T15:50:46;24.90;65.20
12959;DHT22;6544;51.666;6.634;2022-07-23T15:53:14;25.10;71.30
12959;DHT22;6544;51.666;6.634;2022-07-23T15:55:43;25.30;61.10
12959;DHT22;6544;51.666;6.634;2022-07-23T15:58:10;25.40;66.10